Wolf Lake, Illinois
Current Conditions -  °F | °C
As of 7:53 AM on Sunday 21 Dec 2014 (Local Time) from KCGI Reporting Station
Haze Haze  
Wind Chill: 30°   Ceiling: Unl
Heat Index: 30°   Visibility: 4mi
Dew Point: 29°   Wind: 3mph
Humidity: 96%   Direction: 100°E
Pressure: 30.25"   Gusts: NA
Location:  37.5°N, 89.44°W
Report Text: KCGI 211353Z 10003KT 4SM BR CLR M01/M02 A3025 RMK AO2 SLP246 T10111017
Loading
Personal Weather Stations






























Interactive Weather Map New forecast layout! Learn more

10-Day Weather Forecast

Advertisements
Track Severe Weather on mobile